createdAt,value
2022-09-09T00:02:11.739Z,98.43
2022-09-09T00:04:40.777Z,97.50
2022-09-09T00:07:23.891Z,96.75
2022-09-09T00:10:14.931Z,95.58
2022-09-09T00:13:10.235Z,96.31
2022-09-09T00:16:08.399Z,96.69
2022-09-09T00:18:54.625Z,96.00
2022-09-09T00:21:37.008Z,96.69
2022-09-09T00:24:36.602Z,96.67
2022-09-09T00:27:48.137Z,96.10
2022-09-09T00:30:28.531Z,94.82
2022-09-09T00:33:01.412Z,94.57
2022-09-09T00:35:33.811Z,94.09
2022-09-09T00:38:36.126Z,93.61
2022-09-09T00:41:23.115Z,92.94
2022-09-09T00:44:19.855Z,92.39
2022-09-09T00:47:10.220Z,91.94
2022-09-09T00:50:14.423Z,92.45
2022-09-09T00:53:20.930Z,91.98
2022-09-09T00:56:12.939Z,93.17
2022-09-09T00:59:05.690Z,94.87
2022-09-09T01:01:34.346Z,95.01
2022-09-09T01:04:11.270Z,94.79
2022-09-09T01:06:39.748Z,93.94
2022-09-09T01:09:18.380Z,94.18
2022-09-09T01:12:11.543Z,94.17
2022-09-09T01:14:42.302Z,94.62
2022-09-09T01:17:21.835Z,95.33
2022-09-09T01:20:18.422Z,95.68
2022-09-09T01:22:59.028Z,95.18
2022-09-09T01:25:45.602Z,95.11
2022-09-09T01:28:47.412Z,94.87
2022-09-09T01:31:53.624Z,95.35
2022-09-09T01:34:25.680Z,95.87
2022-09-09T01:37:12.505Z,96.75
2022-09-09T01:39:44.592Z,96.46
2022-09-09T01:42:17.499Z,96.30
2022-09-09T01:44:46.520Z,95.44
2022-09-09T01:47:16.213Z,94.85
2022-09-09T01:50:18.265Z,94.32
2022-09-09T01:52:51.499Z,93.88
2022-09-09T01:55:31.089Z,94.11
2022-09-09T01:58:23.960Z,94.06
2022-09-09T02:01:40.829Z,93.35
2022-09-09T02:04:53.175Z,93.39
2022-09-09T02:07:32.171Z,93.68
2022-09-09T02:10:22.344Z,94.33
2022-09-09T02:13:12.460Z,94.84
2022-09-09T02:16:04.465Z,93.78
2022-09-09T02:18:40.057Z,93.64
2022-09-09T02:21:12.933Z,92.94
2022-09-09T02:23:43.999Z,94.63
2022-09-09T02:26:21.420Z,95.01
2022-09-09T02:28:56.950Z,95.16
2022-09-09T02:31:26.971Z,95.54
2022-09-09T02:34:02.924Z,95.07
2022-09-09T02:36:35.326Z,94.57
2022-09-09T02:39:05.331Z,93.83
2022-09-09T02:41:37.971Z,94.26
2022-09-09T02:44:15.172Z,94.93
2022-09-09T02:47:19.812Z,94.35
2022-09-09T02:50:15.739Z,94.81
2022-09-09T02:53:01.332Z,94.74
2022-09-09T02:55:49.970Z,94.83
2022-09-09T02:58:22.340Z,94.48
2022-09-09T03:01:02.439Z,94.40
2022-09-09T03:03:33.252Z,94.31
2022-09-09T03:06:04.781Z,93.08
2022-09-09T03:08:33.238Z,90.71
2022-09-09T03:11:04.291Z,89.65
2022-09-09T03:13:35.985Z,88.74
2022-09-09T03:16:05.142Z,88.66
2022-09-09T03:18:37.536Z,89.50
2022-09-09T03:21:06.637Z,91.43
2022-09-09T03:23:35.016Z,91.60
2022-09-09T03:26:04.464Z,91.20
2022-09-09T03:28:41.876Z,91.49
2022-09-09T03:31:11.510Z,91.60
2022-09-09T03:33:42.691Z,92.17
2022-09-09T03:36:16.055Z,92.04
2022-09-09T03:38:43.653Z,92.77
2022-09-09T03:41:11.138Z,93.84
2022-09-09T03:43:39.676Z,93.75
2022-09-09T03:46:08.084Z,94.34
2022-09-09T03:48:35.589Z,95.08
2022-09-09T03:51:04.276Z,94.95
2022-09-09T03:53:35.493Z,95.02
2022-09-09T03:56:07.774Z,94.42
2022-09-09T03:58:37.209Z,94.46
2022-09-09T04:01:18.650Z,94.52
2022-09-09T04:03:47.734Z,94.48
2022-09-09T04:06:16.247Z,94.42
2022-09-09T04:08:49.980Z,95.03
2022-09-09T04:11:17.582Z,94.94
2022-09-09T04:13:46.667Z,95.04
2022-09-09T04:16:16.130Z,95.70
2022-09-09T04:18:44.900Z,95.94
2022-09-09T04:21:16.712Z,96.27
2022-09-09T04:23:44.891Z,96.35
2022-09-09T04:26:15.048Z,96.26
2022-09-09T04:28:46.121Z,96.56
2022-09-09T04:31:24.631Z,96.54
2022-09-09T04:33:55.646Z,96.19
2022-09-09T04:36:24.212Z,95.92
2022-09-09T04:38:55.620Z,96.06
2022-09-09T04:41:23.733Z,96.54
2022-09-09T04:43:54.703Z,96.87
2022-09-09T04:46:25.111Z,96.16
2022-09-09T04:48:53.893Z,96.06
2022-09-09T04:51:22.920Z,95.74
2022-09-09T04:53:52.717Z,96.06
2022-09-09T04:56:23.047Z,96.49
2022-09-09T04:58:56.853Z,96.64
2022-09-09T05:01:33.893Z,96.86
2022-09-09T05:04:04.692Z,96.66
2022-09-09T05:06:37.270Z,96.01
2022-09-09T05:09:05.655Z,95.56
2022-09-09T05:11:37.882Z,95.15
2022-09-09T05:14:38.622Z,94.10
2022-09-09T05:17:08.040Z,94.01
2022-09-09T05:19:38.700Z,92.83
2022-09-09T05:22:07.260Z,92.43
2022-09-09T05:24:43.413Z,91.65
2022-09-09T05:27:13.431Z,92.27
2022-09-09T05:29:44.567Z,92.60
2022-09-09T05:32:15.547Z,92.81
2022-09-09T05:34:44.934Z,93.12
2022-09-09T05:37:13.662Z,92.87
2022-09-09T05:39:41.803Z,93.21
2022-09-09T05:42:20.055Z,92.95
2022-09-09T05:44:47.818Z,92.73
2022-09-09T05:47:16.430Z,92.47
2022-09-09T05:49:44.841Z,91.78
2022-09-09T05:52:13.296Z,90.49
2022-09-09T05:54:41.421Z,90.13
2022-09-09T05:57:09.990Z,90.45
2022-09-09T05:59:38.533Z,90.26
2022-09-09T06:02:05.842Z,91.25
2022-09-09T06:04:37.951Z,91.42
2022-09-09T06:07:06.854Z,91.89
2022-09-09T06:09:34.754Z,92.31
2022-09-09T06:12:04.140Z,92.58
2022-09-09T06:14:35.907Z,92.55
2022-09-09T06:17:04.774Z,92.77
2022-09-09T06:19:32.040Z,91.86
2022-09-09T06:22:04.088Z,91.67
2022-09-09T06:24:36.135Z,91.15
2022-09-09T06:27:04.179Z,90.65
2022-09-09T06:29:35.836Z,89.54
2022-09-09T06:32:04.995Z,89.08
2022-09-09T06:34:33.733Z,89.46
2022-09-09T06:37:01.897Z,89.71
2022-09-09T06:39:39.699Z,86.79
2022-09-09T06:42:08.214Z,88.22
2022-09-09T06:44:51.742Z,89.03
2022-09-09T06:47:26.636Z,87.14
2022-09-09T06:49:54.938Z,87.53
2022-09-09T06:52:23.847Z,88.54
2022-09-09T06:54:52.773Z,89.01
2022-09-09T06:57:36.309Z,89.38
2022-09-09T07:00:08.684Z,89.26
2022-09-09T07:02:40.817Z,88.16
2022-09-09T07:05:10.226Z,88.25
2022-09-09T07:07:38.961Z,86.88
2022-09-09T07:10:08.891Z,85.72
2022-09-09T07:12:38.732Z,83.25
2022-09-09T07:15:10.856Z,83.30
2022-09-09T07:17:41.898Z,82.15
2022-09-09T07:20:10.080Z,81.49
2022-09-09T07:22:38.453Z,81.04
2022-09-09T07:25:08.133Z,79.02
2022-09-09T07:27:36.861Z,80.32
2022-09-09T07:30:07.630Z,81.07
2022-09-09T07:32:35.897Z,80.73
2022-09-09T07:35:02.950Z,78.67
2022-09-09T07:37:31.902Z,77.89
2022-09-09T07:40:00.004Z,78.11
2022-09-09T07:42:28.462Z,77.27
2022-09-09T07:44:57.260Z,76.75
2022-09-09T07:47:25.959Z,74.68
2022-09-09T07:49:54.065Z,74.99
2022-09-09T07:52:28.736Z,75.54
2022-09-09T07:55:03.326Z,76.33
2022-09-09T07:57:33.737Z,75.00
2022-09-09T08:00:02.128Z,75.53
2022-09-09T08:02:40.158Z,75.68
2022-09-09T08:05:09.974Z,78.28
2022-09-09T08:07:40.328Z,78.09
2022-09-09T08:10:09.504Z,77.36
2022-09-09T08:12:40.293Z,77.17
2022-09-09T08:15:13.917Z,75.04
2022-09-09T08:17:42.452Z,75.78
2022-09-09T08:20:10.485Z,76.15
2022-09-09T08:22:38.935Z,74.28
2022-09-09T08:25:07.768Z,73.26
2022-09-09T08:27:38.278Z,72.55
2022-09-09T08:30:07.182Z,73.37
2022-09-09T08:32:36.436Z,73.38
2022-09-09T08:35:08.138Z,73.52
2022-09-09T08:37:36.846Z,73.96
2022-09-09T08:40:04.302Z,73.21
2022-09-09T08:42:45.883Z,73.98
2022-09-09T08:45:21.149Z,73.48
2022-09-09T08:48:19.893Z,73.49
2022-09-09T08:50:51.976Z,73.39
2022-09-09T08:53:35.605Z,73.58
2022-09-09T08:56:22.833Z,72.65
2022-09-09T08:58:57.909Z,72.78
2022-09-09T09:02:09.909Z,72.78
2022-09-09T09:05:21.548Z,73.46
2022-09-09T09:08:05.906Z,72.50
2022-09-09T09:10:58.363Z,72.43
2022-09-09T09:13:48.510Z,71.63
2022-09-09T09:16:53.391Z,70.28
2022-09-09T09:19:25.043Z,69.97
2022-09-09T09:22:42.774Z,70.20
2022-09-09T09:25:40.940Z,69.26
2022-09-09T09:28:34.815Z,70.18
2022-09-09T09:31:15.097Z,69.13
2022-09-09T09:33:56.467Z,68.79
2022-09-09T09:36:54.532Z,69.72
2022-09-09T09:42:27.340Z,68.70
2022-09-09T09:45:08.833Z,68.25
2022-09-09T09:47:39.491Z,67.48
2022-09-09T09:50:21.940Z,66.38
2022-09-09T09:53:26.276Z,66.71
2022-09-09T09:56:06.037Z,66.71
2022-09-09T09:59:13.146Z,67.24
2022-09-09T10:01:55.735Z,66.71
2022-09-09T10:04:25.602Z,67.54
2022-09-09T10:06:58.133Z,67.90
2022-09-09T10:09:34.019Z,66.85
2022-09-09T10:12:16.325Z,67.34
2022-09-09T10:15:23.092Z,67.13
2022-09-09T10:18:10.552Z,66.64
2022-09-09T10:20:53.330Z,66.41
2022-09-09T10:23:35.699Z,66.45
2022-09-09T10:26:43.061Z,66.46
2022-09-09T10:29:46.329Z,66.48
2022-09-09T10:32:31.196Z,66.24
2022-09-09T10:35:18.330Z,66.04
2022-09-09T10:38:03.612Z,66.41
2022-09-09T10:40:56.168Z,65.98
2022-09-09T10:44:12.489Z,65.85
2022-09-09T10:47:08.109Z,66.38
2022-09-09T10:50:03.780Z,67.62
2022-09-09T10:53:09.283Z,68.28
2022-09-09T10:55:46.338Z,68.86
2022-09-09T10:58:26.880Z,70.05
2022-09-09T11:01:11.137Z,70.41
2022-09-09T11:03:42.719Z,70.13
2022-09-09T11:06:17.226Z,71.10
2022-09-09T11:08:46.741Z,72.57
2022-09-09T11:11:23.989Z,72.18
2022-09-09T11:14:06.577Z,74.07
2022-09-09T11:16:40.594Z,76.28
2022-09-09T11:19:22.521Z,76.52
2022-09-09T11:21:55.348Z,76.58
2022-09-09T11:24:42.249Z,75.95
2022-09-09T11:27:42.733Z,77.00
2022-09-09T11:30:38.103Z,80.20
2022-09-09T11:33:41.549Z,82.81
2022-09-09T11:36:47.171Z,83.38
2022-09-09T11:39:35.434Z,82.71
2022-09-09T11:42:26.357Z,82.42
2022-09-09T11:44:56.152Z,82.77
2022-09-09T11:47:37.295Z,83.78
2022-09-09T11:50:22.330Z,83.80
2022-09-09T11:52:51.831Z,83.87
2022-09-09T11:55:37.987Z,84.17
2022-09-09T11:58:19.163Z,83.92
2022-09-09T12:00:51.784Z,85.09
2022-09-09T12:03:54.307Z,86.32
2022-09-09T12:07:11.335Z,87.60
2022-09-09T12:10:02.363Z,88.36
2022-09-09T12:12:43.854Z,88.14
2022-09-09T12:15:32.317Z,87.74
2022-09-09T12:18:03.813Z,85.97
2022-09-09T12:20:44.641Z,86.71
2022-09-09T12:23:21.304Z,86.62
2022-09-09T12:26:33.267Z,88.33
2022-09-09T12:29:35.261Z,88.89
2022-09-09T12:32:23.100Z,88.39
2022-09-09T12:35:28.035Z,88.60
2022-09-09T12:38:16.134Z,87.49
2022-09-09T12:41:03.960Z,86.09
2022-09-09T12:43:31.697Z,84.39
2022-09-09T12:46:25.195Z,84.21
2022-09-09T12:48:58.006Z,85.66
2022-09-09T12:51:36.924Z,84.44
2022-09-09T12:54:14.283Z,86.76
2022-09-09T12:56:51.005Z,84.66
2022-09-09T12:59:52.028Z,82.82
2022-09-09T13:02:28.720Z,80.80
2022-09-09T13:05:13.881Z,78.63
2022-09-09T13:07:44.319Z,80.11
2022-09-09T13:10:36.868Z,79.70
2022-09-09T13:13:22.921Z,77.53
2022-09-09T13:16:02.541Z,76.78
2022-09-09T13:18:35.716Z,83.38
2022-09-09T13:21:03.397Z,81.77
2022-09-09T13:23:36.610Z,79.87
2022-09-09T13:26:29.895Z,77.73
2022-09-09T13:29:19.221Z,75.66
2022-09-09T13:31:47.269Z,75.93
2022-09-09T13:34:38.837Z,77.74
2022-09-09T13:37:32.894Z,75.52
2022-09-09T13:40:04.006Z,76.24
2022-09-09T13:42:41.701Z,74.92
2022-09-09T13:45:39.225Z,74.31
2022-09-09T13:48:12.005Z,74.83
2022-09-09T13:50:43.917Z,74.35
2022-09-09T13:53:14.268Z,75.42
2022-09-09T13:55:43.749Z,73.48
2022-09-09T13:58:19.383Z,74.81
2022-09-09T14:00:47.981Z,75.13
2022-09-09T14:03:15.520Z,75.37
2022-09-09T14:05:46.268Z,76.12
2022-09-09T14:08:26.701Z,76.57
2022-09-09T14:11:02.094Z,75.91
2022-09-09T14:13:30.253Z,77.06
2022-09-09T14:15:58.983Z,77.73
2022-09-09T14:18:29.124Z,77.60
2022-09-09T14:21:00.540Z,77.97
2022-09-09T14:23:28.812Z,78.17
2022-09-09T14:25:58.487Z,78.43
2022-09-09T14:28:52.092Z,77.96
2022-09-09T14:31:19.807Z,76.13
2022-09-09T14:33:58.913Z,75.98
2022-09-09T14:36:28.593Z,77.77
2022-09-09T14:38:59.212Z,77.01
2022-09-09T14:41:29.764Z,76.58
2022-09-09T14:43:59.100Z,76.69
2022-09-09T14:46:29.306Z,77.58
2022-09-09T14:48:58.969Z,78.09
2022-09-09T14:51:30.005Z,78.02
2022-09-09T14:54:00.340Z,78.83
2022-09-09T14:56:30.970Z,78.95
2022-09-09T14:59:02.744Z,78.30
2022-09-09T15:01:33.414Z,76.24
2022-09-09T15:04:02.975Z,76.41
2022-09-09T15:06:38.075Z,75.91
2022-09-09T15:09:13.454Z,75.86
2022-09-09T15:11:44.724Z,74.21
2022-09-09T15:14:14.569Z,75.38
2022-09-09T15:16:43.147Z,73.30
2022-09-09T15:19:12.233Z,73.79
2022-09-09T15:21:43.213Z,73.26
2022-09-09T15:24:15.675Z,74.38
2022-09-09T15:26:46.661Z,74.75
2022-09-09T15:29:15.206Z,74.65
2022-09-09T15:31:43.755Z,75.10
2022-09-09T15:34:13.211Z,75.14
2022-09-09T15:36:43.950Z,75.33
2022-09-09T15:39:18.955Z,75.79
2022-09-09T15:41:48.884Z,76.04
2022-09-09T15:44:17.270Z,76.47
2022-09-09T15:46:49.691Z,76.41
2022-09-09T15:49:29.082Z,75.91
2022-09-09T15:52:04.628Z,76.26
2022-09-09T15:54:40.488Z,75.82
2022-09-09T15:57:11.455Z,74.78
2022-09-09T15:59:50.279Z,75.65
2022-09-09T16:02:18.025Z,75.18
2022-09-09T16:04:46.173Z,75.56
2022-09-09T16:07:15.604Z,75.27
2022-09-09T16:09:44.898Z,75.93
2022-09-09T16:12:17.394Z,75.89
2022-09-09T16:14:44.681Z,74.97
2022-09-09T16:17:15.374Z,75.30
2022-09-09T16:19:43.628Z,75.43
2022-09-09T16:22:16.804Z,74.69
2022-09-09T16:24:46.248Z,74.90
2022-09-09T16:27:13.709Z,75.22
2022-09-09T16:29:44.564Z,75.03
2022-09-09T16:32:14.311Z,75.41
2022-09-09T16:34:44.849Z,75.04
2022-09-09T16:37:14.977Z,75.51
2022-09-09T16:39:45.099Z,75.79
2022-09-09T16:42:13.687Z,76.02
2022-09-09T16:44:45.241Z,75.69
2022-09-09T16:47:15.767Z,77.32
2022-09-09T16:49:43.951Z,78.20
2022-09-09T16:52:11.768Z,78.61
2022-09-09T16:54:46.409Z,79.76
2022-09-09T16:57:13.755Z,81.27
2022-09-09T16:59:43.285Z,81.86
2022-09-09T17:02:16.009Z,81.94
2022-09-09T17:04:44.916Z,82.48
2022-09-09T17:07:14.325Z,83.25
2022-09-09T17:10:03.080Z,83.85
2022-09-09T17:12:31.520Z,84.12
2022-09-09T17:15:01.622Z,84.36
2022-09-09T17:17:32.062Z,84.52
2022-09-09T17:20:00.540Z,84.89
2022-09-09T17:22:29.849Z,84.66
2022-09-09T17:25:00.408Z,84.88
2022-09-09T17:27:28.889Z,84.46
2022-09-09T17:30:01.694Z,85.12
2022-09-09T17:32:31.356Z,85.58
2022-09-09T17:35:00.028Z,85.69
2022-09-09T17:37:29.849Z,86.51
2022-09-09T17:39:59.921Z,86.13
2022-09-09T17:42:29.330Z,86.13
2022-09-09T17:44:58.227Z,86.36
2022-09-09T17:47:29.192Z,86.70
2022-09-09T17:50:00.720Z,86.16
2022-09-09T17:52:29.240Z,86.35
2022-09-09T17:54:59.323Z,86.01
2022-09-09T17:57:29.715Z,86.46
2022-09-09T17:59:59.013Z,86.12
2022-09-09T18:02:30.027Z,86.63
2022-09-09T18:04:58.245Z,85.99
2022-09-09T18:07:29.127Z,86.10
2022-09-09T18:09:58.727Z,86.71
2022-09-09T18:12:32.165Z,86.61
2022-09-09T18:15:03.760Z,85.82
2022-09-09T18:17:32.231Z,85.94
2022-09-09T18:20:01.380Z,86.31
2022-09-09T18:22:31.847Z,85.98
2022-09-09T18:24:59.936Z,85.86
2022-09-09T18:27:31.759Z,85.77
2022-09-09T18:30:00.952Z,85.78
2022-09-09T18:32:32.967Z,86.25
2022-09-09T18:35:01.845Z,86.50
2022-09-09T18:37:28.964Z,85.86
2022-09-09T18:40:00.284Z,85.92
2022-09-09T18:42:29.478Z,85.95
2022-09-09T18:44:59.265Z,85.56
2022-09-09T18:47:31.278Z,85.99
2022-09-09T18:49:59.170Z,86.06
2022-09-09T18:52:35.543Z,84.77
2022-09-09T18:55:04.379Z,85.44
2022-09-09T18:57:35.815Z,85.96
2022-09-09T19:00:13.094Z,86.49
2022-09-09T19:02:41.736Z,86.58
2022-09-09T19:05:31.686Z,86.32
2022-09-09T19:08:00.355Z,85.66
2022-09-09T19:10:29.146Z,86.28
2022-09-09T19:13:00.891Z,86.81
2022-09-09T19:15:30.366Z,87.01
2022-09-09T19:18:05.276Z,87.20
2022-09-09T19:20:34.804Z,86.33
2022-09-09T19:23:02.405Z,86.22
2022-09-09T19:25:32.270Z,86.11
2022-09-09T19:28:00.176Z,85.44
2022-09-09T19:30:29.687Z,85.64
2022-09-09T19:33:00.006Z,86.22
2022-09-09T19:35:29.577Z,86.08
2022-09-09T19:38:01.914Z,86.17
2022-09-09T19:40:33.613Z,86.54
2022-09-09T19:43:01.100Z,86.55
2022-09-09T19:45:29.136Z,87.43
2022-09-09T19:47:59.598Z,87.89
2022-09-09T19:50:28.888Z,87.34
2022-09-09T19:52:57.899Z,86.89
2022-09-09T19:55:30.181Z,88.11
2022-09-09T19:58:01.090Z,88.63
2022-09-09T20:00:29.065Z,88.78
2022-09-09T20:03:18.068Z,89.09
2022-09-09T20:05:50.584Z,89.54
2022-09-09T20:08:18.726Z,89.28
2022-09-09T20:10:58.567Z,90.37
2022-09-09T20:13:29.340Z,90.63
2022-09-09T20:16:04.595Z,91.09
2022-09-09T20:18:46.327Z,90.80
2022-09-09T20:21:21.603Z,90.38
2022-09-09T20:24:03.764Z,90.05
2022-09-09T20:26:33.715Z,89.86
2022-09-09T20:29:06.184Z,90.24
2022-09-09T20:31:46.537Z,89.69
2022-09-09T20:34:26.335Z,89.56
2022-09-09T20:37:01.935Z,89.81
2022-09-09T20:39:30.536Z,90.37
2022-09-09T20:41:59.525Z,90.12
2022-09-09T20:44:29.936Z,90.02
2022-09-09T20:47:00.738Z,89.70
2022-09-09T20:49:30.365Z,89.08
2022-09-09T20:51:59.519Z,89.25
2022-09-09T20:54:32.969Z,89.21
2022-09-09T20:57:00.599Z,89.28
2022-09-09T20:59:30.910Z,89.04
2022-09-09T21:01:58.592Z,88.58
2022-09-09T21:04:28.575Z,88.69
2022-09-09T21:06:59.614Z,89.06
2022-09-09T21:09:30.084Z,88.24
2022-09-09T21:11:58.455Z,88.22
2022-09-09T21:14:34.818Z,88.08
2022-09-09T21:17:03.366Z,87.87
2022-09-09T21:19:31.644Z,87.89
2022-09-09T21:21:59.218Z,88.85
2022-09-09T21:24:30.325Z,88.60
2022-09-09T21:27:00.851Z,89.33
2022-09-09T21:29:29.488Z,89.73
2022-09-09T21:31:58.738Z,89.95
2022-09-09T21:34:28.263Z,90.98
2022-09-09T21:37:00.299Z,91.08
2022-09-09T21:39:28.717Z,91.56
2022-09-09T21:41:59.259Z,91.56
2022-09-09T21:44:31.650Z,91.65
2022-09-09T21:46:59.164Z,91.89
2022-09-09T21:49:28.733Z,91.81
2022-09-09T21:51:59.618Z,92.03
2022-09-09T21:54:31.874Z,91.36
2022-09-09T21:56:58.890Z,91.16
2022-09-09T21:59:29.059Z,91.33
2022-09-09T22:01:59.222Z,91.36
2022-09-09T22:04:28.564Z,91.95
2022-09-09T22:06:58.736Z,91.91
2022-09-09T22:09:29.790Z,91.44
2022-09-09T22:11:59.845Z,90.79
2022-09-09T22:14:29.699Z,90.75
2022-09-09T22:16:59.295Z,90.59
2022-09-09T22:19:30.203Z,90.46
2022-09-09T22:21:58.728Z,90.29
2022-09-09T22:24:30.547Z,90.90
2022-09-09T22:27:00.645Z,90.16
2022-09-09T22:29:29.303Z,89.95
2022-09-09T22:31:59.924Z,90.21
2022-09-09T22:34:28.887Z,91.25
2022-09-09T22:37:00.140Z,91.23
2022-09-09T22:39:32.592Z,90.99
2022-09-09T22:42:01.213Z,90.44
2022-09-09T22:44:30.195Z,91.54
2022-09-09T22:46:58.812Z,91.05
2022-09-09T22:49:29.574Z,92.00
2022-09-09T22:51:57.925Z,91.70
2022-09-09T22:54:28.565Z,93.22
2022-09-09T22:56:59.203Z,94.51
2022-09-09T22:59:29.845Z,95.62
2022-09-09T23:02:00.185Z,96.82
2022-09-09T23:04:29.425Z,96.42
2022-09-09T23:06:59.355Z,95.90
2022-09-09T23:09:29.124Z,95.30
2022-09-09T23:12:01.043Z,95.71
2022-09-09T23:14:29.332Z,95.28
2022-09-09T23:16:59.415Z,95.93
2022-09-09T23:19:30.405Z,94.63
2022-09-09T23:21:58.900Z,94.38
2022-09-09T23:24:29.924Z,93.84
2022-09-09T23:26:59.364Z,93.79
2022-09-09T23:29:29.780Z,93.44
2022-09-09T23:31:58.575Z,93.49
2022-09-09T23:34:27.300Z,93.02
2022-09-09T23:36:56.835Z,92.87
2022-09-09T23:39:30.027Z,93.29
2022-09-09T23:42:00.706Z,93.06
2022-09-09T23:44:31.564Z,93.56
2022-09-09T23:46:59.341Z,93.76
2022-09-09T23:49:27.237Z,92.97
2022-09-09T23:51:56.334Z,92.27
2022-09-09T23:54:26.812Z,91.90
2022-09-09T23:56:59.444Z,92.13
2022-09-09T23:59:30.634Z,92.06
